createdAt,value
2018-05-31T00:01:40.389Z,5.73
2018-05-31T00:04:06.994Z,5.67
2018-05-31T00:06:33.530Z,6.30
2018-05-31T00:09:00.067Z,5.63
2018-05-31T00:11:26.605Z,5.53
2018-05-31T00:13:53.112Z,5.53
2018-05-31T00:16:19.617Z,6.13
2018-05-31T00:18:46.830Z,6.40
2018-05-31T00:21:13.371Z,5.80
2018-05-31T00:23:39.862Z,6.60
2018-05-31T00:26:06.330Z,5.57
2018-05-31T00:28:32.881Z,6.43
2018-05-31T00:30:59.311Z,7.20
2018-05-31T00:33:26.009Z,6.50
2018-05-31T00:35:52.518Z,8.97
2018-05-31T00:38:19.754Z,6.87
2018-05-31T00:40:46.440Z,8.20
2018-05-31T00:43:13.002Z,8.50
2018-05-31T00:45:39.633Z,7.00
2018-05-31T00:48:06.123Z,6.90
2018-05-31T00:50:33.367Z,8.40
2018-05-31T00:53:00.659Z,8.60
2018-05-31T00:55:39.434Z,8.23
2018-05-31T00:58:06.722Z,9.00
2018-05-31T01:00:33.247Z,9.03
2018-05-31T01:02:59.791Z,8.30
2018-05-31T01:05:26.253Z,9.30
2018-05-31T01:07:52.728Z,8.57
2018-05-31T01:10:19.994Z,10.07
2018-05-31T01:12:47.261Z,8.47
2018-05-31T01:15:13.889Z,8.70
2018-05-31T01:17:40.351Z,7.83
2018-05-31T01:20:06.839Z,9.40
2018-05-31T01:22:34.115Z,10.10
2018-05-31T01:25:00.607Z,9.70
2018-05-31T01:27:27.171Z,9.10
2018-05-31T01:29:53.663Z,9.20
2018-05-31T01:32:20.162Z,9.30
2018-05-31T01:34:46.698Z,10.37
2018-05-31T01:37:13.145Z,10.23
2018-05-31T01:39:39.582Z,10.10
2018-05-31T01:42:06.042Z,10.90
2018-05-31T01:44:32.526Z,10.93
2018-05-31T01:46:59.021Z,14.93
2018-05-31T01:49:25.519Z,11.43
2018-05-31T01:51:52.019Z,10.17
2018-05-31T01:54:18.573Z,9.80
2018-05-31T01:56:45.047Z,10.17
2018-05-31T01:59:11.680Z,11.40
2018-05-31T02:01:38.181Z,8.30
2018-05-31T02:04:04.670Z,10.40
2018-05-31T02:06:31.158Z,11.20
2018-05-31T02:08:57.687Z,11.37
2018-05-31T02:11:24.136Z,11.00
2018-05-31T02:13:50.723Z,10.47
2018-05-31T02:16:18.029Z,11.50
2018-05-31T02:18:44.530Z,10.67
2018-05-31T02:21:11.139Z,11.57
2018-05-31T02:23:38.387Z,11.03
2018-05-31T02:26:05.595Z,11.37
2018-05-31T02:28:32.094Z,12.23
2018-05-31T02:30:59.303Z,12.47
2018-05-31T02:33:25.929Z,11.60
2018-05-31T02:35:52.375Z,12.00
2018-05-31T02:38:18.876Z,12.50
2018-05-31T02:40:45.326Z,11.73
2018-05-31T02:43:11.967Z,11.37
2018-05-31T02:45:38.432Z,12.10
2018-05-31T02:48:05.655Z,11.20
2018-05-31T02:50:32.226Z,10.47
2018-05-31T02:52:59.486Z,13.40
2018-05-31T02:55:26.809Z,11.07
2018-05-31T02:57:53.325Z,13.20
2018-05-31T03:00:19.943Z,12.63
2018-05-31T03:02:46.389Z,12.33
2018-05-31T03:05:12.879Z,13.83
2018-05-31T03:07:40.168Z,14.17
2018-05-31T03:10:06.671Z,13.50
2018-05-31T03:12:33.911Z,13.10
2018-05-31T03:15:01.170Z,14.10
2018-05-31T03:17:28.383Z,13.77
2018-05-31T03:19:55.006Z,14.20
2018-05-31T03:22:21.436Z,12.80
2018-05-31T03:24:47.920Z,13.60
2018-05-31T03:27:15.218Z,14.80
2018-05-31T03:29:41.650Z,15.57
2018-05-31T03:32:08.135Z,14.97
2018-05-31T03:34:35.291Z,13.90
2018-05-31T03:37:02.499Z,14.47
2018-05-31T03:39:29.071Z,12.00
2018-05-31T03:41:55.562Z,12.80
2018-05-31T03:44:22.050Z,11.13
2018-05-31T03:46:49.887Z,11.03
2018-05-31T03:49:16.340Z,10.50
2018-05-31T03:51:43.580Z,10.23
2018-05-31T03:54:10.098Z,11.20
2018-05-31T03:56:36.652Z,10.93
2018-05-31T03:59:03.098Z,11.10
2018-05-31T04:01:30.324Z,11.30
2018-05-31T04:03:56.772Z,10.83
2018-05-31T04:06:23.222Z,10.97
2018-05-31T04:08:50.571Z,11.20
2018-05-31T04:11:17.878Z,11.20
2018-05-31T04:13:44.377Z,11.23
2018-05-31T04:16:11.563Z,10.00
2018-05-31T04:18:38.059Z,10.03
2018-05-31T04:21:05.295Z,10.03
2018-05-31T04:23:32.666Z,9.90
2018-05-31T04:25:59.862Z,9.40
2018-05-31T04:28:26.309Z,9.53
2018-05-31T04:30:52.793Z,9.60
2018-05-31T04:33:19.327Z,9.60
2018-05-31T04:35:45.885Z,8.97
2018-05-31T04:38:12.342Z,10.00
2018-05-31T04:40:38.883Z,9.53
2018-05-31T04:43:05.314Z,9.47
2018-05-31T04:45:31.955Z,9.90
2018-05-31T04:47:58.422Z,9.80
2018-05-31T04:50:25.994Z,9.53
2018-05-31T04:52:52.487Z,10.60
2018-05-31T04:55:18.994Z,9.97
2018-05-31T04:57:45.502Z,9.90
2018-05-31T05:00:11.926Z,10.30
2018-05-31T05:02:38.455Z,10.13
2018-05-31T05:05:05.775Z,9.63
2018-05-31T05:07:32.347Z,9.20
2018-05-31T05:09:58.816Z,10.47
2018-05-31T05:12:25.388Z,9.70
2018-05-31T05:14:51.838Z,9.23
2018-05-31T05:17:19.070Z,10.57
2018-05-31T05:19:45.566Z,8.73
2018-05-31T05:22:12.035Z,8.63
2018-05-31T05:24:38.499Z,9.97
2018-05-31T05:27:05.728Z,9.30
2018-05-31T05:29:32.358Z,9.33
2018-05-31T05:31:58.870Z,8.83
2018-05-31T05:34:25.367Z,9.13
2018-05-31T05:36:51.881Z,9.90
2018-05-31T05:39:19.999Z,10.67
2018-05-31T05:41:46.526Z,10.47
2018-05-31T05:44:12.960Z,9.70
2018-05-31T05:46:39.394Z,9.40
2018-05-31T05:49:05.925Z,9.60
2018-05-31T05:51:32.379Z,9.70
2018-05-31T05:53:58.841Z,9.27
2018-05-31T05:56:25.317Z,8.93
2018-05-31T05:58:51.795Z,8.20
2018-05-31T06:01:18.274Z,8.40
2018-05-31T06:03:44.747Z,8.30
2018-05-31T06:06:11.362Z,8.13
2018-05-31T06:08:37.893Z,7.60
2018-05-31T06:11:04.414Z,7.60
2018-05-31T06:13:31.722Z,7.20
2018-05-31T06:15:58.231Z,7.40
2018-05-31T06:18:24.794Z,7.43
2018-05-31T06:20:51.368Z,7.17
2018-05-31T06:23:18.541Z,6.40
2018-05-31T06:25:45.115Z,6.90
2018-05-31T06:28:11.590Z,6.20
2018-05-31T06:30:38.167Z,6.03
2018-05-31T06:33:04.630Z,6.40
2018-05-31T06:35:31.141Z,6.13
2018-05-31T06:37:57.579Z,6.20
2018-05-31T06:40:24.092Z,6.63
2018-05-31T06:42:50.606Z,5.93
2018-05-31T06:45:17.075Z,5.67
2018-05-31T06:47:43.589Z,5.77
2018-05-31T06:50:10.111Z,6.10
2018-05-31T06:52:36.678Z,6.20
2018-05-31T06:55:03.131Z,5.80
2018-05-31T06:57:29.617Z,6.13
2018-05-31T06:59:56.042Z,6.37
2018-05-31T07:02:23.393Z,6.60
2018-05-31T07:04:50.694Z,5.87
2018-05-31T07:07:17.212Z,6.17
2018-05-31T07:09:43.705Z,6.10
2018-05-31T07:12:10.987Z,6.10
2018-05-31T07:14:37.463Z,6.57
2018-05-31T07:17:04.133Z,6.30
2018-05-31T07:19:31.638Z,5.33
2018-05-31T07:21:58.118Z,5.57
2018-05-31T07:24:25.307Z,6.70
2018-05-31T07:26:51.754Z,6.03
2018-05-31T07:29:18.255Z,5.60
2018-05-31T07:31:45.486Z,6.00
2018-05-31T07:34:12.751Z,6.53
2018-05-31T07:36:39.955Z,6.20
2018-05-31T07:39:06.452Z,5.90
2018-05-31T07:41:33.109Z,6.47
2018-05-31T07:43:59.603Z,6.00
2018-05-31T07:46:26.882Z,5.50
2018-05-31T07:48:54.202Z,4.63
2018-05-31T07:51:20.729Z,5.60
2018-05-31T07:53:47.222Z,5.07
2018-05-31T07:56:13.756Z,5.63
2018-05-31T07:58:40.276Z,4.90
2018-05-31T08:01:06.785Z,5.80
2018-05-31T08:03:34.112Z,6.70
2018-05-31T08:06:00.670Z,6.00
2018-05-31T08:08:27.046Z,6.17
2018-05-31T08:10:53.574Z,5.57
2018-05-31T08:13:20.047Z,5.97
2018-05-31T08:15:46.526Z,5.50
2018-05-31T08:18:13.090Z,6.23
2018-05-31T08:20:39.695Z,6.03
2018-05-31T08:23:06.858Z,6.33
2018-05-31T08:25:33.454Z,6.60
2018-05-31T08:27:59.967Z,6.13
2018-05-31T08:30:26.594Z,5.80
2018-05-31T08:32:53.085Z,6.67
2018-05-31T08:35:20.303Z,6.57
2018-05-31T08:37:46.918Z,6.17
2018-05-31T08:40:13.357Z,5.50
2018-05-31T08:42:39.901Z,6.17
2018-05-31T08:45:06.350Z,6.17
2018-05-31T08:47:32.803Z,6.30
2018-05-31T08:49:59.242Z,6.07
2018-05-31T08:52:26.552Z,6.07
2018-05-31T08:54:53.115Z,6.60
2018-05-31T08:57:20.306Z,5.73
2018-05-31T08:59:46.781Z,7.30
2018-05-31T09:02:13.264Z,5.93
2018-05-31T09:04:39.771Z,6.73
2018-05-31T09:07:07.000Z,6.77
2018-05-31T09:09:33.512Z,6.27
2018-05-31T09:12:00.056Z,7.90
2018-05-31T09:14:26.671Z,7.27
2018-05-31T09:16:53.181Z,7.83
2018-05-31T09:19:19.662Z,7.33
2018-05-31T09:21:46.106Z,7.67
2018-05-31T09:24:12.597Z,6.90
2018-05-31T09:26:39.076Z,7.80
2018-05-31T09:29:05.598Z,7.33
2018-05-31T09:31:32.173Z,7.53
2018-05-31T09:33:59.516Z,7.90
2018-05-31T09:36:26.769Z,7.10
2018-05-31T09:38:54.035Z,9.10
2018-05-31T09:41:21.271Z,7.47
2018-05-31T09:43:47.832Z,7.10
2018-05-31T09:46:14.459Z,7.97
2018-05-31T09:48:41.678Z,8.27
2018-05-31T09:51:08.191Z,6.90
2018-05-31T09:53:34.747Z,7.30
2018-05-31T09:56:01.289Z,7.40
2018-05-31T09:58:27.832Z,7.73
2018-05-31T10:00:54.361Z,8.00
2018-05-31T10:03:20.893Z,8.10
2018-05-31T10:05:47.407Z,7.77
2018-05-31T10:08:14.062Z,7.70
2018-05-31T10:10:40.593Z,7.87
2018-05-31T10:13:07.730Z,7.73
2018-05-31T10:15:34.417Z,8.53
2018-05-31T10:18:01.665Z,8.43
2018-05-31T10:20:29.058Z,8.00
2018-05-31T10:22:55.567Z,8.50
2018-05-31T10:25:22.246Z,8.33
2018-05-31T10:27:49.173Z,9.53
2018-05-31T10:30:15.794Z,7.20
2018-05-31T10:32:42.378Z,8.13
2018-05-31T10:35:09.624Z,8.30
2018-05-31T10:37:36.119Z,8.50
2018-05-31T10:40:02.712Z,8.10
2018-05-31T10:42:53.288Z,8.40
2018-05-31T10:48:00.215Z,7.47
2018-05-31T10:50:29.466Z,7.57
2018-05-31T10:53:12.271Z,7.87
2018-05-31T10:55:43.776Z,8.70
2018-05-31T10:58:10.223Z,8.60
2018-05-31T11:00:37.505Z,8.63
2018-05-31T11:03:03.974Z,8.07
2018-05-31T11:05:30.563Z,7.63
2018-05-31T11:07:57.214Z,8.10
2018-05-31T11:10:23.800Z,8.70
2018-05-31T11:12:50.322Z,8.87
2018-05-31T11:15:16.815Z,8.10
2018-05-31T11:17:43.388Z,8.30
2018-05-31T11:20:09.820Z,8.33
2018-05-31T11:22:36.333Z,7.87
2018-05-31T11:25:02.782Z,8.03
2018-05-31T11:27:29.304Z,8.87
2018-05-31T11:29:55.749Z,8.17
2018-05-31T11:32:22.351Z,8.63
2018-05-31T11:34:48.896Z,8.17
2018-05-31T11:37:15.440Z,7.83
2018-05-31T11:39:42.014Z,9.03
2018-05-31T11:42:08.565Z,8.70
2018-05-31T11:44:35.154Z,8.53
2018-05-31T11:47:01.662Z,7.70
2018-05-31T11:49:28.872Z,8.73
2018-05-31T11:51:55.443Z,8.77
2018-05-31T11:54:22.728Z,8.57
2018-05-31T11:56:49.182Z,9.07
2018-05-31T11:59:15.665Z,8.40
2018-05-31T12:01:43.054Z,8.40
2018-05-31T12:04:10.305Z,7.73
2018-05-31T12:06:36.881Z,8.50
2018-05-31T12:09:03.420Z,7.80
2018-05-31T12:14:25.837Z,7.83
2018-05-31T12:16:52.443Z,8.30
2018-05-31T12:19:19.730Z,7.60
2018-05-31T12:21:46.258Z,7.90
2018-05-31T12:24:12.880Z,7.90
2018-05-31T12:26:39.354Z,7.97
2018-05-31T12:29:05.849Z,7.97
2018-05-31T12:31:32.333Z,7.60
2018-05-31T12:33:58.888Z,8.20
2018-05-31T12:36:25.385Z,8.10
2018-05-31T12:38:51.822Z,8.00
2018-05-31T12:41:18.363Z,7.60
2018-05-31T12:43:44.829Z,8.80
2018-05-31T12:46:12.129Z,8.17
2018-05-31T12:48:38.624Z,7.60
2018-05-31T12:51:05.843Z,7.90
2018-05-31T12:53:32.466Z,7.87
2018-05-31T12:55:58.933Z,8.30
2018-05-31T12:58:26.132Z,8.03
2018-05-31T13:00:52.776Z,8.93
2018-05-31T13:03:19.316Z,8.40
2018-05-31T13:05:45.895Z,8.77
2018-05-31T13:08:14.246Z,6.67
2018-05-31T13:10:40.739Z,5.50
2018-05-31T13:13:07.326Z,5.60
2018-05-31T13:15:33.791Z,5.33
2018-05-31T13:18:00.991Z,5.17
2018-05-31T13:20:27.426Z,5.30
2018-05-31T13:22:53.966Z,6.00
2018-05-31T13:25:20.580Z,6.10
2018-05-31T13:27:47.781Z,5.80
2018-05-31T13:30:15.038Z,5.20
2018-05-31T13:32:49.434Z,6.20
2018-05-31T13:35:15.911Z,6.23
2018-05-31T13:37:43.186Z,7.00
2018-05-31T13:43:06.176Z,7.90
2018-05-31T13:45:32.678Z,6.80
2018-05-31T13:47:59.185Z,6.80
2018-05-31T13:50:26.371Z,5.80
2018-05-31T13:52:52.982Z,6.10
2018-05-31T13:55:20.289Z,6.03
2018-05-31T13:57:46.761Z,6.43
2018-05-31T14:00:14.025Z,5.40
2018-05-31T14:02:40.573Z,5.67
2018-05-31T14:05:07.011Z,5.20
2018-05-31T14:07:33.557Z,5.30
2018-05-31T14:10:00.016Z,4.93
2018-05-31T14:12:26.523Z,4.60
2018-05-31T14:14:52.985Z,4.87
2018-05-31T14:17:19.458Z,4.80
2018-05-31T14:19:46.702Z,5.27
2018-05-31T14:22:13.947Z,4.27
2018-05-31T14:24:40.427Z,4.63
2018-05-31T14:27:07.039Z,4.50
2018-05-31T14:29:34.255Z,4.67
2018-05-31T14:32:01.159Z,4.20
2018-05-31T14:34:27.752Z,4.50
2018-05-31T14:36:55.049Z,4.40
2018-05-31T14:39:21.555Z,4.73
2018-05-31T14:41:48.984Z,4.80
2018-05-31T14:44:16.245Z,4.33
2018-05-31T14:46:43.494Z,4.40
2018-05-31T14:49:10.123Z,4.00
2018-05-31T14:51:36.658Z,4.80
2018-05-31T14:54:03.330Z,4.70
2018-05-31T14:56:29.802Z,4.40
2018-05-31T14:58:56.475Z,5.40
2018-05-31T15:01:22.978Z,4.60
2018-05-31T15:03:49.448Z,4.80
2018-05-31T15:06:15.923Z,5.30
2018-05-31T15:08:42.406Z,4.70
2018-05-31T15:11:09.110Z,3.97
2018-05-31T15:13:35.735Z,5.03
2018-05-31T15:16:02.434Z,4.90
2018-05-31T15:18:28.932Z,4.67
2018-05-31T15:20:55.420Z,5.10
2018-05-31T15:23:22.622Z,5.50
2018-05-31T15:25:49.098Z,5.03
2018-05-31T15:28:16.322Z,5.07
2018-05-31T15:30:42.774Z,4.70
2018-05-31T15:33:10.023Z,4.83
2018-05-31T15:35:36.552Z,5.30
2018-05-31T15:38:03.030Z,5.30
2018-05-31T15:40:29.621Z,5.33
2018-05-31T15:42:56.089Z,4.63
2018-05-31T15:45:22.552Z,5.47
2018-05-31T15:47:49.104Z,5.90
2018-05-31T15:50:15.655Z,5.13
2018-05-31T15:52:42.176Z,6.13
2018-05-31T15:55:08.691Z,5.10
2018-05-31T15:57:35.351Z,5.50
2018-05-31T16:00:01.825Z,4.73
2018-05-31T16:02:28.376Z,4.77
2018-05-31T16:04:54.860Z,5.00
2018-05-31T16:07:21.395Z,4.53
2018-05-31T16:09:47.889Z,4.57
2018-05-31T16:12:15.560Z,4.47
2018-05-31T16:14:42.094Z,4.93
2018-05-31T16:17:08.707Z,4.83
2018-05-31T16:19:36.597Z,4.77
2018-05-31T16:22:07.677Z,5.93
2018-05-31T16:24:36.924Z,5.63
2018-05-31T16:27:04.747Z,5.67
2018-05-31T16:29:34.235Z,7.00
2018-05-31T16:32:03.575Z,7.87
2018-05-31T16:34:30.490Z,7.50
2018-05-31T16:36:57.120Z,7.33
2018-05-31T16:39:23.731Z,7.77
2018-05-31T16:41:50.461Z,8.13
2018-05-31T16:44:17.049Z,9.57
2018-05-31T16:46:43.649Z,9.37
2018-05-31T16:49:10.177Z,9.67
2018-05-31T16:51:36.650Z,10.37
2018-05-31T16:54:03.254Z,8.80
2018-05-31T16:56:29.709Z,10.70
2018-05-31T16:58:56.302Z,10.43
2018-05-31T17:01:22.791Z,9.90
2018-05-31T17:03:49.314Z,10.10
2018-05-31T17:06:15.923Z,10.77
2018-05-31T17:08:42.423Z,9.97
2018-05-31T17:11:09.751Z,9.50
2018-05-31T17:13:36.237Z,8.60
2018-05-31T17:16:02.743Z,9.70
2018-05-31T17:18:30.022Z,10.97
2018-05-31T17:20:56.675Z,9.60
2018-05-31T17:23:23.183Z,9.23
2018-05-31T17:25:49.749Z,10.00
2018-05-31T17:28:16.185Z,10.33
2018-05-31T17:30:42.707Z,10.13
2018-05-31T17:33:09.213Z,10.77
2018-05-31T17:35:35.750Z,10.13
2018-05-31T17:38:03.057Z,10.40
2018-05-31T17:40:29.599Z,9.87
2018-05-31T17:42:56.214Z,10.30
2018-05-31T17:45:22.681Z,9.50
2018-05-31T17:47:49.289Z,10.83
2018-05-31T17:50:15.880Z,10.50
2018-05-31T17:52:42.426Z,11.03
2018-05-31T17:55:09.090Z,9.80
2018-05-31T17:57:35.610Z,10.40
2018-05-31T18:00:02.268Z,10.17
2018-05-31T18:02:28.750Z,11.40
2018-05-31T18:04:56.023Z,10.00
2018-05-31T18:07:22.536Z,10.20
2018-05-31T18:09:49.798Z,10.40
2018-05-31T18:12:17.208Z,11.70
2018-05-31T18:14:43.857Z,10.17
2018-05-31T18:17:11.216Z,9.80
2018-05-31T18:19:37.803Z,9.20
2018-05-31T18:22:04.318Z,11.60
2018-05-31T18:24:30.909Z,10.60
2018-05-31T18:26:57.455Z,10.90
2018-05-31T18:29:23.974Z,10.27
2018-05-31T18:31:50.505Z,11.20
2018-05-31T18:34:17.059Z,10.70
2018-05-31T18:36:43.707Z,11.50
2018-05-31T18:39:10.242Z,10.73
2018-05-31T18:41:36.810Z,10.77
2018-05-31T18:44:03.382Z,10.97
2018-05-31T18:46:30.054Z,12.07
2018-05-31T18:48:56.558Z,10.77
2018-05-31T18:51:23.069Z,11.03
2018-05-31T18:53:49.783Z,9.57
2018-05-31T18:56:17.097Z,10.40
2018-05-31T18:58:44.523Z,10.97
2018-05-31T19:01:11.040Z,11.60
2018-05-31T19:03:37.751Z,12.00
2018-05-31T19:06:05.121Z,11.60
2018-05-31T19:08:31.734Z,11.07
2018-05-31T19:10:58.366Z,11.10
2018-05-31T19:13:30.825Z,12.10
2018-05-31T19:15:57.444Z,11.67
2018-05-31T19:18:30.039Z,11.63
2018-05-31T19:20:56.598Z,12.53
2018-05-31T19:23:23.096Z,14.10
2018-05-31T19:25:49.629Z,14.70
2018-05-31T19:28:16.270Z,14.00
2018-05-31T19:30:49.801Z,13.50
2018-05-31T19:33:16.270Z,12.50
2018-05-31T19:35:48.867Z,12.30
2018-05-31T19:38:15.469Z,12.10
2018-05-31T19:40:42.771Z,13.37
2018-05-31T19:43:15.310Z,13.27
2018-05-31T19:45:41.801Z,14.43
2018-05-31T19:48:08.352Z,14.20
2018-05-31T19:50:34.915Z,13.43
2018-05-31T19:53:07.538Z,13.50
2018-05-31T19:55:34.079Z,12.73
2018-05-31T19:58:06.580Z,11.97
2018-05-31T20:00:39.852Z,13.57
2018-05-31T20:03:12.536Z,13.87
2018-05-31T20:05:39.177Z,13.43
2018-05-31T20:08:05.725Z,13.10
2018-05-31T20:10:32.334Z,14.50
2018-05-31T20:12:58.900Z,13.43
2018-05-31T20:15:26.228Z,14.80
2018-05-31T20:17:52.818Z,14.40
2018-05-31T20:20:19.411Z,13.50
2018-05-31T20:22:45.864Z,13.10
2018-05-31T20:25:13.176Z,10.13
2018-05-31T20:27:39.846Z,9.27
2018-05-31T20:30:06.459Z,9.00
2018-05-31T20:32:33.008Z,9.40
2018-05-31T20:34:59.930Z,8.30
2018-05-31T20:37:27.429Z,9.70
2018-05-31T20:39:54.046Z,9.87
2018-05-31T20:42:20.756Z,8.27
2018-05-31T20:44:47.531Z,3.97
2018-05-31T20:47:14.186Z,5.53
2018-05-31T20:49:41.581Z,7.47
2018-05-31T20:52:19.801Z,7.87
2018-05-31T20:54:46.314Z,8.03
2018-05-31T20:57:13.602Z,6.70
2018-05-31T20:59:40.214Z,6.77
2018-05-31T21:02:07.354Z,6.90
2018-05-31T21:04:33.913Z,3.53
2018-05-31T21:07:00.520Z,6.10
2018-05-31T21:09:27.073Z,3.80
2018-05-31T21:11:53.725Z,4.43
2018-05-31T21:14:20.417Z,4.87
2018-05-31T21:16:48.295Z,6.40
2018-05-31T21:19:15.414Z,4.63
2018-05-31T21:21:41.935Z,4.27
2018-05-31T21:24:08.454Z,4.57
2018-05-31T21:26:35.110Z,3.17
2018-05-31T21:29:01.636Z,3.63
2018-05-31T21:31:28.112Z,2.90
2018-05-31T21:33:55.338Z,3.10
2018-05-31T21:36:21.918Z,3.23
2018-05-31T21:38:49.073Z,3.60
2018-05-31T21:41:15.731Z,3.17
2018-05-31T21:43:42.927Z,1.90
2018-05-31T21:46:10.146Z,2.93
2018-05-31T21:48:36.623Z,2.53
2018-05-31T21:51:04.055Z,2.93
2018-05-31T21:53:30.598Z,2.87
2018-05-31T21:55:57.095Z,1.97
2018-05-31T21:58:23.630Z,3.07
2018-05-31T22:00:55.190Z,1.57
2018-05-31T22:03:21.668Z,1.87
2018-05-31T22:05:48.908Z,2.97
2018-05-31T22:08:16.186Z,1.90
2018-05-31T22:10:42.675Z,2.53
2018-05-31T22:13:09.209Z,1.73
2018-05-31T22:15:35.747Z,1.80
2018-05-31T22:18:02.290Z,1.83
2018-05-31T22:20:28.853Z,2.13
2018-05-31T22:22:56.074Z,1.90
2018-05-31T22:25:22.560Z,1.30
2018-05-31T22:27:49.114Z,1.70
2018-05-31T22:30:15.608Z,2.00
2018-05-31T22:32:42.178Z,2.03
2018-05-31T22:35:08.682Z,0.90
2018-05-31T22:37:35.214Z,1.00
2018-05-31T22:40:02.437Z,1.90
2018-05-31T22:42:28.944Z,1.50
2018-05-31T22:44:55.471Z,1.80
2018-05-31T22:47:21.941Z,1.60
2018-05-31T22:49:48.465Z,1.97
2018-05-31T22:52:14.941Z,1.53
2018-05-31T22:54:41.442Z,1.93
2018-05-31T22:57:07.948Z,1.80
2018-05-31T22:59:34.428Z,1.40
2018-05-31T23:02:01.654Z,1.87
2018-05-31T23:04:28.123Z,1.60
2018-05-31T23:06:55.315Z,1.77
2018-05-31T23:09:21.925Z,2.00
2018-05-31T23:11:48.399Z,3.60
2018-05-31T23:14:14.963Z,3.87
2018-05-31T23:16:41.402Z,4.50
2018-05-31T23:19:08.679Z,4.43
2018-05-31T23:21:35.159Z,4.77
2018-05-31T23:24:01.584Z,4.20
2018-05-31T23:26:28.814Z,3.10
2018-05-31T23:28:55.510Z,2.27
2018-05-31T23:31:22.840Z,1.77
2018-05-31T23:33:49.328Z,2.57
2018-05-31T23:36:15.865Z,2.43
2018-05-31T23:38:42.318Z,2.50
2018-05-31T23:41:08.794Z,2.87
2018-05-31T23:43:35.279Z,2.47
2018-05-31T23:46:01.776Z,1.97
2018-05-31T23:48:29.065Z,2.13
2018-05-31T23:50:55.569Z,2.63
2018-05-31T23:53:22.766Z,1.53
2018-05-31T23:55:49.254Z,1.90
2018-05-31T23:58:16.473Z,2.53
